»·PEaware :: WAT175 KTUS-KLAS

WAT175 :: KTUS-KLAS

FLIGHT INFORMATION

Flight Status: Arrived
Operator:
Walker Air Transport
More flights by this operator :: More flights under this callsign
Pilot: Michael C. (27126)
Aircraft: BOEING 737-800
(B738)
More flights by this aircraft type
Origin: KTUS Tucson Intl
United States
Destination: KLAS McCarran Intl
United States
More flights between these airports :: More routes between these airports
Route: +TUS8 PXR J11 DRK TYSSN5
File this flight plan on PilotEdge
Remarks: RMK / SIMBRIEF
Altitude:
(Current/Filed)
36,000ft
Speed:
(Current/Filed)
454kts
Departed: 02-Oct-20 05:48 PM
Arrived: 02-Oct-20 06:44 PM
Distance/Time
Traveled:
317nm/0:56
Distance/Time
To Go:
Arrived

Flight Plot

Page will automatically refresh every two minutes.

Flight plan parsing failed; only flown route is shown


Map Options




Map Legend


Flown Route
Filed Route
Departure Airport
Arrival Airport
Navaid (VOR, NDB)
Fix

Horizontal Profiles

Position Reports

Time Latitude Longitude Heading Altitude Ground
Speed
02-Oct-20 17:16 32.121788 -110.939892 152 2598ft 0kts
02-Oct-20 17:17 32.121789 -110.939892 152 2598ft 0kts
02-Oct-20 17:18 32.121789 -110.939892 152 2598ft 0kts
02-Oct-20 17:19 32.121789 -110.939892 152 2598ft 0kts
02-Oct-20 17:20 32.121789 -110.939892 152 2598ft 0kts
02-Oct-20 17:21 32.121789 -110.939892 152 2598ft 0kts
02-Oct-20 17:22 32.121789 -110.939892 152 2598ft 0kts
02-Oct-20 17:23 32.121789 -110.939892 152 2598ft 0kts
02-Oct-20 17:24 32.121789 -110.939892 152 2598ft 0kts
02-Oct-20 17:25 32.121789 -110.939892 152 2598ft 0kts
02-Oct-20 17:26 32.121789 -110.939892 152 2598ft 0kts
02-Oct-20 17:27 32.121789 -110.939892 152 2598ft 0kts
02-Oct-20 17:28 32.121789 -110.939892 152 2598ft 0kts
02-Oct-20 17:29 32.121789 -110.939892 152 2598ft 0kts
02-Oct-20 17:30 32.121789 -110.939892 152 2598ft 0kts
02-Oct-20 17:31 32.121789 -110.939892 152 2598ft 0kts
02-Oct-20 17:32 32.121789 -110.939892 152 2598ft 0kts
02-Oct-20 17:33 32.121789 -110.939892 152 2598ft 0kts
02-Oct-20 17:34 32.121789 -110.939893 152 2598ft 0kts
02-Oct-20 17:35 32.122261 -110.940050 231 2598ft 2kts
02-Oct-20 17:36 32.122301 -110.939868 267 2598ft 0kts
02-Oct-20 17:37 32.122301 -110.939868 267 2598ft 0kts
02-Oct-20 17:38 32.121382 -110.940819 188 2598ft 0kts
02-Oct-20 17:39 32.120882 -110.940869 182 2598ft 9kts
02-Oct-20 17:40 32.117817 -110.938841 136 2598ft 20kts
02-Oct-20 17:41 32.113879 -110.934231 135 2598ft 18kts
02-Oct-20 17:42 32.110574 -110.930369 134 2598ft 13kts
02-Oct-20 17:43 32.108368 -110.927770 136 2598ft 9kts
02-Oct-20 17:44 32.106013 -110.925034 134 2598ft 14kts
02-Oct-20 17:45 32.102990 -110.922434 225 2598ft 0kts
02-Oct-20 17:46 32.102584 -110.923057 257 2598ft 13kts
02-Oct-20 17:47 32.123347 -110.947788 316 3120ft 183kts
02-Oct-20 17:48 32.170442 -110.987005 332 4875ft 249kts
02-Oct-20 17:49 32.234317 -111.028048 331 7715ft 273kts
02-Oct-20 17:50 32.304266 -111.072015 331 10383ft 300kts
02-Oct-20 17:51 32.386415 -111.123677 331 12111ft 350kts
02-Oct-20 17:52 32.473466 -111.178462 331 14675ft 362kts
02-Oct-20 17:53 32.563807 -111.235379 331 17050ft 373kts
02-Oct-20 17:54 32.656935 -111.294112 331 19229ft 384kts
02-Oct-20 17:55 32.752631 -111.354531 332 21250ft 395kts
02-Oct-20 17:56 32.850994 -111.416698 332 23088ft 406kts
02-Oct-20 17:57 32.950591 -111.483228 324 24794ft 415kts
02-Oct-20 17:58 33.041702 -111.569576 321 26472ft 422kts
02-Oct-20 17:59 33.132474 -111.660660 320 28006ft 428kts
02-Oct-20 18:00 33.224259 -111.754378 320 29329ft 437kts
02-Oct-20 18:01 33.317423 -111.850163 320 30608ft 444kts
02-Oct-20 18:02 33.411404 -111.944320 329 32118ft 439kts
02-Oct-20 18:03 33.521986 -112.002200 341 33570ft 432kts
02-Oct-20 18:04 33.635196 -112.049499 342 34892ft 428kts
02-Oct-20 18:05 33.747890 -112.094881 342 35922ft 429kts
02-Oct-20 18:06 33.863829 -112.141243 342 35916ft 450kts
02-Oct-20 18:07 33.983110 -112.188983 343 35916ft 451kts
02-Oct-20 18:08 34.102153 -112.236731 343 35930ft 450kts
02-Oct-20 18:09 34.220922 -112.284494 343 36126ft 450kts
02-Oct-20 18:10 34.340089 -112.332556 343 36182ft 450kts
02-Oct-20 18:11 34.458541 -112.380474 343 36183ft 449kts
02-Oct-20 18:12 34.576948 -112.428515 343 36182ft 450kts
02-Oct-20 18:13 34.685904 -112.504244 320 36183ft 455kts
02-Oct-20 18:14 34.760381 -112.628814 298 36184ft 462kts
02-Oct-20 18:15 34.815961 -112.770158 297 36183ft 463kts
02-Oct-20 18:16 34.871308 -112.912214 297 36183ft 464kts
02-Oct-20 18:17 34.926453 -113.054405 297 36182ft 464kts
02-Oct-20 18:18 34.979874 -113.192938 297 36130ft 423kts
02-Oct-20 18:19 35.029810 -113.322876 297 36091ft 428kts
02-Oct-20 18:20 35.079832 -113.453564 297 34916ft 424kts
02-Oct-20 18:21 35.129998 -113.585092 297 31916ft 431kts
02-Oct-20 18:22 35.180475 -113.718035 296 29458ft 419kts
02-Oct-20 18:23 35.228120 -113.844301 296 27470ft 401kts
02-Oct-20 18:24 35.292569 -113.951082 319 25366ft 386kts
02-Oct-20 18:25 35.377336 -114.030191 324 23356ft 379kts
02-Oct-20 18:26 35.462407 -114.102953 325 21383ft 367kts
02-Oct-20 18:27 35.545196 -114.172937 325 19452ft 356kts
02-Oct-20 18:28 35.625692 -114.241061 324 17553ft 348kts
02-Oct-20 18:29 35.695560 -114.324341 314 14574ft 367kts
02-Oct-20 18:30 35.772427 -114.396514 336 12012ft 322kts
02-Oct-20 18:31 35.851482 -114.434467 339 11806ft 304kts
02-Oct-20 18:32 35.929157 -114.470821 339 10724ft 290kts
02-Oct-20 18:34 35.978814 -114.539525 291 8825ft 284kts
02-Oct-20 18:35 36.006739 -114.630339 291 6594ft 277kts
02-Oct-20 18:36 36.033142 -114.717286 291 4988ft 253kts
02-Oct-20 18:37 36.069540 -114.774514 288 4973ft 173kts
02-Oct-20 18:38 36.073006 -114.833171 271 4993ft 171kts
02-Oct-20 18:39 36.073396 -114.892318 271 4988ft 171kts
02-Oct-20 18:40 36.073515 -114.951451 270 4934ft 174kts
02-Oct-20 18:41 36.073605 -115.011524 270 3965ft 173kts
02-Oct-20 18:42 36.073648 -115.070061 270 3040ft 172kts
02-Oct-20 18:43 36.073568 -115.125593 270 2171ft 167kts
02-Oct-20 18:44 36.073645 -115.159385 270 2121ft 33kts
02-Oct-20 18:45 36.074246 -115.161258 352 2121ft 0kts
02-Oct-20 18:46 36.074246 -115.161258 352 2121ft 0kts
02-Oct-20 18:47 36.075509 -115.161286 0 2121ft 17kts
02-Oct-20 18:48 36.078061 -115.159199 90 2121ft 13kts
02-Oct-20 18:49 36.078122 -115.153777 63 2121ft 14kts
02-Oct-20 18:49 36.080206 -115.152003 3 2121ft 17kts
02-Oct-20 18:51 36.082470 -115.151413 46 2121ft 0kts

Navigation Log

Ident Type
Flight plan parsing failed, navigation log unavailable